Latest Weather Observations for Hughenden

IDQ60801

Issued at 11:35 pm EST Friday 29 August 2014 (issued every 30 minutes, with the page automatically refreshed every 10 minutes)

About weather observations | Map of weather stations | Latest weather observations for QLD | Other Formats
Station Details ID: 030022 Name: HUGHENDEN AIRPORT Lat: -20.82 Lon: 144.23 Height: 316.4 m
Data from the previous 72 hours. | See also: Recent months at Hughenden
Date/Time
EST
Temp
°C
App
Temp
°C
Dew
Point
Rel
Hum
%
Delta-T
°C
Wind Press
QNH
hPa
Press
MSL
hPa
Rain
since 9 am
mm
Dir
 
Spd
km/h
Gust
km/h
Spd
kts
Gust
kts
29/11:30pm 18.5 12.9 0.2 29 8.1 ESE 19 22 10 12 1018.5 1017.6 0.0
29/11:00pm 17.6 12.7 -0.6 29 7.9 ESE 15 19 8 10 1018.5 1017.6 0.0
29/10:30pm 18.9 13.7 0.0 28 8.4 SE 17 22 9 12 1018.5 1017.6 0.0
29/10:00pm 18.5 14.0 -0.3 28 8.3 SE 13 17 7 9 1018.4 1017.5 0.0
29/09:30pm 18.6 14.0 -0.7 27 8.4 SE 13 17 7 9 1018.3 1017.4 0.0
29/09:00pm 19.3 14.4 -0.7 26 8.8 SE 15 15 8 8 1018.4 1017.5 0.0
29/08:30pm 19.7 14.9 0.2 27 8.8 SSE 15 17 8 9 1018.2 1017.3 0.0
29/08:00pm 19.0 14.4 -0.9 26 8.7 SE 13 13 7 7 1017.9 1016.9 0.0
29/07:30pm 21.1 16.9 -0.8 23 9.8 SE 11 13 6 7 1017.8 1016.8 0.0
29/07:00pm 22.3 18.2 -0.4 22 10.3 SE 11 13 6 7 1017.6 1016.6 0.0
29/06:30pm 23.8 19.3 -0.5 20 11.1 SE 13 17 7 9 1017.3 1016.3 0.0
29/06:00pm 25.3 20.0 -0.7 18 12.0 SE 17 22 9 12 1016.9 1015.9 0.0
29/05:30pm 26.5 21.2 -0.5 17 12.6 SE 17 26 9 14 1016.5 1015.6 0.0
29/05:00pm 27.2 21.5 -0.8 16 13.1 E 19 26 10 14 1016.5 1015.6 0.0
29/04:30pm 27.2 22.6 -0.8 16 13.1 E 13 22 7 12 1016.3 1015.4 0.0
29/04:00pm 27.1 21.4 -0.9 16 13.1 ESE 19 28 10 15 1016.3 1015.4 0.0
29/03:30pm 27.6 21.7 -0.5 16 13.3 SE 20 26 11 14 1016.6 1015.7 0.0
29/03:00pm 27.4 22.1 -0.6 16 13.2 E 17 30 9 16 1016.6 1015.7 0.0
29/02:30pm 27.1 21.3 0.0 17 12.9 ESE 20 30 11 16 1016.8 1015.8 0.0
29/02:00pm 26.3 20.4 -0.7 17 12.6 SE 20 35 11 19 1017.1 1016.1 0.0
29/01:30pm 26.9 21.3 -0.2 17 12.8 ESE 19 28 10 15 1017.5 1016.5 0.0
29/01:00pm 26.7 21.0 0.4 18 12.5 E 20 41 11 22 1017.9 1016.9 0.0
29/12:30pm 25.7 19.2 0.4 19 12.0 ESE 24 39 13 21 1018.4 1017.5 0.0
29/12:00pm 25.9 17.9 0.5 19 12.0 ESE 32 37 17 20 1019.1 1018.2 0.0
29/11:33am 24.9 17.7 0.4 20 11.5 ENE 28 50 15 27 1019.7 1018.8 0.0
29/11:30am 25.1 17.9 0.6 20 11.6 ENE 28 33 15 18 1019.8 1018.9 0.0
29/11:00am 24.1 17.0 1.1 22 10.9 E 28 37 15 20 1020.5 1019.5 0.0
29/10:30am 24.0 17.1 2.8 25 10.4 E 28 39 15 21 1020.7 1019.7 0.0
29/10:00am 22.8 15.8 1.8 25 10.0 E 28 35 15 19 1020.9 1020.0 0.0
29/09:30am 21.8 15.6 2.0 27 9.4 ESE 24 33 13 18 1021.0 1020.1 0.0
29/09:00am 20.2 14.8 1.1 28 8.8 ESE 19 28 10 15 1021.3 1020.4 0.0
29/08:30am 18.3 13.2 0.9 31 7.8 ESE 17 22 9 12 1021.2 1020.3 0.0
29/08:00am 16.1 10.4 0.3 34 6.9 ESE 20 30 11 16 1021.1 1020.2 0.0
29/07:30am 14.7 10.4 0.9 39 6.0 ESE 13 17 7 9 1020.7 1019.7 0.0
29/07:00am 12.6 8.2 0.4 43 5.2 ENE 13 15 7 8 1020.6 1019.6 0.0
29/06:30am 11.2 7.5 -0.3 45 4.7 NE 9 13 5 7 1020.2 1019.2 0.0
29/06:00am 12.5 8.4 0.0 42 5.2 ENE 11 13 6 7 1019.7 1018.8 0.0
29/05:30am 12.7 8.3 0.1 42 5.3 SE 13 17 7 9 1019.2 1018.3 0.0
29/05:00am 13.5 8.6 -0.2 39 5.8 SE 15 19 8 10 1019.0 1018.1 0.0
29/04:30am 13.4 8.3 0.8 42 5.4 ESE 17 20 9 11 1018.9 1018.0 0.0
29/04:00am 11.1 7.0 -0.4 45 4.7 SE 11 13 6 7 1019.0 1018.1 0.0
29/03:30am 12.5 8.4 0.0 42 5.2 SE 11 13 6 7 1019.1 1018.2 0.0
29/03:00am 14.3 9.9 0.2 38 6.0 SE 13 17 7 9 1019.0 1018.1 0.0
29/02:30am 14.3 9.9 0.5 39 6.0 ESE 13 15 7 8 1019.3 1018.4 0.0
29/02:00am 14.4 9.9 -0.1 37 6.2 ESE 13 15 7 8 1019.5 1018.6 0.0
29/01:30am 14.6 9.8 0.1 37 6.2 ESE 15 15 8 8 1019.5 1018.6 0.0
29/01:00am 14.2 9.8 0.1 38 6.0 ESE 13 15 7 8 1019.7 1018.8 0.0
29/12:30am 14.4 10.3 -0.1 37 6.2 ESE 11 13 6 7 1019.8 1018.9 0.0
29/12:00am 14.9 10.4 0.0 36 6.4 SE 13 15 7 8 1019.9 1019.0 0.0
 
Date/Time
EST
Temp
°C
App
Temp
°C
Dew
Point
Rel
Hum
%
Delta-T
°C
Wind Press
QNH
hPa
Press
MSL
hPa
Rain
since 9 am
mm
Dir
 
Spd
km/h
Gust
km/h
Spd
kts
Gust
kts
28/11:30pm 15.3 11.1 -0.9 33 6.9 SE 11 13 6 7 1019.9 1019.0 0.0
28/11:00pm 15.4 10.8 -0.8 33 6.9 ESE 13 17 7 9 1019.9 1019.0 0.0
28/10:30pm 15.2 11.0 -0.9 33 6.8 ESE 11 15 6 8 1020.2 1019.2 0.0
28/10:00pm 15.5 11.3 -1.1 32 7.0 SE 11 13 6 7 1019.9 1019.0 0.0
28/09:30pm 16.5 11.8 -1.6 29 7.6 SE 13 15 7 8 1019.7 1018.8 0.0
28/09:00pm 17.7 13.1 -1.0 28 8.0 SSE 13 17 7 9 1019.7 1018.8 0.0
28/08:30pm 18.4 13.4 -0.9 27 8.4 SSE 15 17 8 9 1019.5 1018.6 0.0
28/08:00pm 19.2 14.6 -1.3 25 8.9 SSE 13 17 7 9 1019.4 1018.5 0.0
28/07:30pm 20.1 15.0 -1.7 23 9.5 SSE 15 17 8 9 1019.0 1018.1 0.0
28/07:00pm 21.2 16.6 -1.3 22 9.9 SSE 13 17 7 9 1018.7 1017.8 0.0
28/06:30pm 22.2 17.6 -1.1 21 10.4 SSE 13 17 7 9 1018.5 1017.6 0.0
28/06:00pm 23.8 18.3 -1.9 18 11.5 SE 17 24 9 13 1018.1 1017.2 0.0
28/05:30pm 24.9 19.4 -1.8 17 12.1 SE 17 24 9 13 1017.7 1016.7 0.0
28/05:00pm 25.3 19.4 -2.3 16 12.4 SE 19 20 10 11 1017.5 1016.5 0.0
28/04:30pm 25.9 19.9 -1.8 16 12.6 SSE 20 30 11 16 1017.2 1016.2 0.0
28/04:00pm 25.6 19.9 -3.8 14 12.9 ESE 17 24 9 13 1017.0 1016.0 0.0
28/03:30pm 25.6 20.0 -2.9 15 12.7 SE 17 28 9 15 1017.0 1016.0 0.0
28/03:00pm 25.6 19.4 -2.9 15 12.7 ESE 20 28 11 15 1017.2 1016.2 0.0
28/02:30pm 25.7 19.6 -2.0 16 12.5 SSE 20 28 11 15 1017.5 1016.5 0.0
28/02:00pm 25.4 19.3 -2.2 16 12.4 SSE 20 30 11 16 1017.9 1016.9 0.0
28/01:30pm 25.0 19.1 -2.5 16 12.3 SE 19 28 10 15 1018.2 1017.3 0.0
28/01:00pm 24.1 18.2 -2.4 17 11.7 S 19 24 10 13 1018.6 1017.7 0.0
28/12:30pm 24.2 18.8 -1.6 18 11.6 SE 17 28 9 15 1019.1 1018.2 0.0
28/12:00pm 22.8 17.4 -1.3 20 10.8 SE 17 26 9 14 1019.7 1018.8 0.0
28/11:30am 22.7 17.0 -0.7 21 10.6 ESE 19 28 10 15 1020.4 1019.4 0.0
28/11:00am 22.3 16.5 -0.4 22 10.3 ESE 20 35 11 19 1020.8 1019.8 0.0
28/10:30am 21.5 14.9 -0.5 23 9.9 ESE 24 35 13 19 1021.0 1020.1 0.0
28/10:00am 20.6 14.0 -0.7 24 9.5 ESE 24 35 13 19 1021.2 1020.3 0.0
28/09:30am 19.8 13.5 -0.8 25 9.1 ESE 22 28 12 15 1021.4 1020.5 0.0
28/09:00am 18.4 11.4 -0.4 28 8.2 E 26 33 14 18 1021.2 1020.3 0.0
28/08:30am 17.2 11.0 -0.5 30 7.7 ESE 22 32 12 17 1021.0 1020.1 0.0
28/08:00am 15.8 10.5 -0.4 33 6.9 ESE 17 24 9 13 1020.9 1020.0 0.0
28/07:30am 13.9 9.2 1.2 42 5.5 ESE 15 20 8 11 1020.5 1019.5 0.0
28/07:22am 11.9 8.2 2.4 52 4.2 ESE 11 15 6 8 1020.4 1019.4 0.0
28/07:00am 6.6 2.8 -3.6 48 3.7 ESE 7 9 4 5 1020.2 1019.2 0.0
28/06:30am 5.6 2.2 -5.1 46 3.7 NE 4 6 2 3 1019.8 1018.9 0.0
28/06:00am 6.0 2.3 -4.2 48 3.6 ENE 6 7 3 4 1019.4 1018.5 0.0
28/05:30am 6.3 2.4 -4.4 46 3.8 ENE 7 7 4 4 1019.2 1018.3 0.0
28/05:00am 7.1 3.9 -3.7 46 3.9 NE 4 7 2 4 1019.2 1018.3 0.0
28/04:30am 6.5 3.9 -5.2 43 4.1 CALM 0 4 0 2 1018.9 1018.0 0.0
28/04:00am 6.8 3.5 -4.6 44 4.0 E 4 6 2 3 1018.7 1017.8 0.0
28/03:30am 7.5 3.7 -5.2 40 4.5 ENE 6 7 3 4 1018.6 1017.7 0.0
28/03:00am 8.3 4.7 -3.8 42 4.4 ESE 6 7 3 4 1018.7 1017.8 0.0
28/02:30am 7.7 3.3 -5.4 39 4.6 SE 9 9 5 5 1018.9 1018.0 0.0
28/02:00am 8.6 4.8 -6.0 35 5.1 E 6 7 3 4 1019.3 1018.4 0.0
28/01:30am 9.2 5.4 -5.4 35 5.2 SE 6 7 3 4 1019.3 1018.4 0.0
28/01:00am 9.9 6.2 -4.4 36 5.3 SSE 6 7 3 4 1019.4 1018.5 0.0
28/12:30am 10.0 6.0 -5.9 32 5.7 SSE 7 9 4 5 1019.6 1018.7 0.0
28/12:00am 11.1 7.2 -4.9 32 5.9 SSE 7 11 4 6 1019.7 1018.8 0.0
 
Date/Time
EST
Temp
°C
App
Temp
°C
Dew
Point
Rel
Hum
%
Delta-T
°C
Wind Press
QNH
hPa
Press
MSL
hPa
Rain
since 9 am
mm
Dir
 
Spd
km/h
Gust
km/h
Spd
kts
Gust
kts
27/11:30pm 11.7 7.0 -4.8 31 6.2 S 11 11 6 6 1019.9 1019.0 0.0
27/11:00pm 11.1 6.7 -5.8 30 6.1 SSE 9 11 5 6 1020.2 1019.2 0.0
27/10:30pm 12.2 7.9 -4.8 30 6.4 SE 9 11 5 6 1020.2 1019.2 0.0
27/10:00pm 12.6 8.2 -5.4 28 6.7 SSE 9 11 5 6 1020.1 1019.1 0.0
27/09:30pm 13.9 9.2 -5.3 26 7.3 SSE 11 13 6 7 1019.8 1018.9 0.0
27/09:00pm 14.5 9.7 -5.8 24 7.6 S 11 13 6 7 1019.5 1018.6 0.0
27/08:30pm 15.6 10.5 -5.4 23 8.1 S 13 15 7 8 1019.3 1018.4 0.0
27/08:00pm 16.4 11.6 -6.0 21 8.6 S 11 13 6 7 1019.1 1018.2 0.0
27/07:30pm 17.9 12.7 -6.0 19 9.3 S 13 15 7 8 1018.6 1017.7 0.0
27/07:00pm 19.1 14.3 -6.5 17 10.0 S 11 13 6 7 1018.3 1017.4 0.0
27/06:30pm 20.8 15.1 -7.6 14 11.0 S 15 17 8 9 1017.9 1016.9 0.0
27/06:00pm 22.6 16.5 -7.2 13 11.9 S 17 22 9 12 1017.5 1016.5 0.0
27/05:30pm 23.8 17.7 -7.3 12 12.5 SSW 17 20 9 11 1017.3 1016.3 0.0
27/05:00pm 24.4 17.9 -7.9 11 12.9 SSW 19 30 10 16 1017.0 1016.0 0.0
27/04:30pm 24.8 18.7 -7.6 11 13.1 S 17 26 9 14 1016.8 1015.8 0.0
27/04:00pm 25.1 18.5 -7.4 11 13.2 SSW 20 28 11 15 1016.4 1015.5 0.0
27/03:30pm 25.0 18.5 -7.5 11 13.2 S 19 24 10 13 1016.4 1015.5 0.0
27/03:00pm 25.0 19.6 -8.7 10 13.4 SSE 13 24 7 13 1016.5 1015.6 0.0
27/02:30pm 24.3 18.5 -9.2 10 13.1 S 15 24 8 13 1016.8 1015.8 0.0
27/02:00pm 24.0 18.3 -7.1 12 12.6 E 15 19 8 10 1017.0 1016.0 0.0
27/01:30pm 24.1 18.8 -7.0 12 12.7 S 13 20 7 11 1017.6 1016.6 0.0
27/01:00pm 23.4 17.8 -6.5 13 12.2 SE 15 26 8 14 1018.1 1017.2 0.0
27/12:30pm 22.2 17.1 -5.6 15 11.4 S 13 20 7 11 1018.6 1017.7 0.0
27/12:00pm 22.6 17.2 -4.5 16 11.4 SSE 15 24 8 13 1019.2 1018.3 0.0
27/11:30am 20.8 15.3 -5.1 17 10.6 SSE 15 20 8 11 1019.8 1018.9 0.0
27/11:00am 20.7 15.8 -3.7 19 10.2 SE 13 22 7 12 1020.3 1019.3 0.0
27/10:30am 20.2 14.6 -2.8 21 9.8 ESE 17 28 9 15 1020.7 1019.7 0.0
27/10:00am 19.2 12.6 -3.0 22 9.3 ESE 22 32 12 17 1020.9 1020.0 0.0
27/09:30am 18.9 12.4 -2.1 24 9.0 SE 22 30 12 16 1021.1 1020.2 0.0
27/09:00am 17.5 12.0 -2.2 26 8.2 ESE 17 22 9 12 1021.0 1020.1 0.0
27/08:30am 16.1 9.9 -2.9 27 7.8 ESE 20 26 11 14 1020.8 1019.8 0.0
27/08:00am 14.1 10.3 -4.1 28 7.1 NE 7 9 4 5 1020.6 1019.6 0.0
27/07:30am 11.1 7.2 -4.9 32 5.9 N 7 9 4 5 1020.3 1019.3 0.0
27/07:00am 10.1 5.8 -4.6 35 5.4 NE 9 11 5 6 1019.6 1018.7 0.0
27/06:30am 8.2 4.5 -4.2 41 4.5 ENE 6 7 3 4 1019.3 1018.4 0.0
27/06:00am 6.9 4.0 -8.2 33 4.9 CALM 0 0 0 0 1019.1 1018.2 0.0
27/05:30am 7.3 3.1 -8.3 32 5.1 SE 7 9 4 5 1018.8 1017.9 0.0
27/05:00am 8.6 4.4 -8.0 30 5.5 N 7 9 4 5 1018.8 1017.9 0.0
27/04:30am 11.5 6.9 -7.8 25 6.7 SE 9 11 5 6 1018.4 1017.5 0.0
27/04:00am 11.7 6.4 -7.6 25 6.7 SSE 13 15 7 8 1018.1 1017.2 0.0
27/03:30am 10.9 5.8 -8.8 24 6.6 SE 11 13 6 7 1018.1 1017.2 0.0
27/03:00am 12.6 6.8 -9.1 21 7.4 SSE 15 20 8 11 1018.1 1017.2 0.0
27/02:30am 12.5 6.7 -8.6 22 7.3 SSE 15 19 8 10 1018.2 1017.3 0.0
27/02:00am 13.1 6.9 -8.7 21 7.6 S 17 20 9 11 1018.4 1017.5 0.0
27/01:30am 13.6 7.5 -8.3 21 7.7 S 17 22 9 12 1018.7 1017.8 0.0
27/01:00am 12.4 7.5 -7.6 24 7.0 S 11 13 6 7 1018.7 1017.8 0.0
27/12:30am 12.9 8.0 -7.2 24 7.2 S 11 13 6 7 1018.9 1018.0 0.0
27/12:00am 14.0 8.8 -6.2 24 7.5 SSE 13 15 7 8 1019.0 1018.1 0.0

Other Formats:

Comma delimited format used in spreadsheet applications
http://www.bom.gov.au/fwo/IDQ60801/IDQ60801.94343.axf

JavaScript Object Notation format (JSON) in row-major order
http://www.bom.gov.au/fwo/IDQ60801/IDQ60801.94343.json